sensor_id;sensor_type;location;lat;lon;timestamp;temperature;humidity
23120;DHT22;11729;50.836;4.330;2023-09-19T00:01:35;16.90;99.90
23120;DHT22;11729;50.836;4.330;2023-09-19T00:04:01;16.80;99.90
23120;DHT22;11729;50.836;4.330;2023-09-19T00:06:29;16.80;99.90
23120;DHT22;11729;50.836;4.330;2023-09-19T00:08:57;16.70;99.90
23120;DHT22;11729;50.836;4.330;2023-09-19T00:11:25;16.70;99.90
23120;DHT22;11729;50.836;4.330;2023-09-19T00:13:52;16.70;99.90
23120;DHT22;11729;50.836;4.330;2023-09-19T00:16:18;16.80;99.90
23120;DHT22;11729;50.836;4.330;2023-09-19T00:18:44;16.70;99.90
23120;DHT22;11729;50.836;4.330;2023-09-19T00:21:10;16.70;99.90
23120;DHT22;11729;50.836;4.330;2023-09-19T00:23:37;16.60;99.90
23120;DHT22;11729;50.836;4.330;2023-09-19T00:26:02;16.70;99.90
23120;DHT22;11729;50.836;4.330;2023-09-19T00:28:29;16.70;99.90
23120;DHT22;11729;50.836;4.330;2023-09-19T00:30:55;16.70;99.90
23120;DHT22;11729;50.836;4.330;2023-09-19T00:33:21;16.70;99.90
23120;DHT22;11729;50.836;4.330;2023-09-19T00:35:51;16.60;99.90
23120;DHT22;11729;50.836;4.330;2023-09-19T00:38:18;16.60;99.90
23120;DHT22;11729;50.836;4.330;2023-09-19T00:40:50;16.60;99.90
23120;DHT22;11729;50.836;4.330;2023-09-19T00:43:19;16.70;99.90
23120;DHT22;11729;50.836;4.330;2023-09-19T00:45:48;16.70;99.90
23120;DHT22;11729;50.836;4.330;2023-09-19T00:48:17;16.70;99.90
23120;DHT22;11729;50.836;4.330;2023-09-19T00:50:46;16.70;99.90
23120;DHT22;11729;50.836;4.330;2023-09-19T00:53:15;16.70;99.90
23120;DHT22;11729;50.836;4.330;2023-09-19T00:55:44;16.60;99.90
23120;DHT22;11729;50.836;4.330;2023-09-19T00:58:11;16.60;99.90
23120;DHT22;11729;50.836;4.330;2023-09-19T01:00:37;16.70;99.90
23120;DHT22;11729;50.836;4.330;2023-09-19T01:03:04;16.60;99.90
23120;DHT22;11729;50.836;4.330;2023-09-19T01:05:33;16.60;99.90
23120;DHT22;11729;50.836;4.330;2023-09-19T01:07:58;16.50;99.90
23120;DHT22;11729;50.836;4.330;2023-09-19T01:10:25;16.50;99.90
23120;DHT22;11729;50.836;4.330;2023-09-19T01:13:18;16.50;99.90
23120;DHT22;11729;50.836;4.330;2023-09-19T01:16:50;16.50;99.90
23120;DHT22;11729;50.836;4.330;2023-09-19T01:30:47;16.40;99.90
23120;DHT22;11729;50.836;4.330;2023-09-19T01:33:16;16.30;99.90
23120;DHT22;11729;50.836;4.330;2023-09-19T01:35:44;16.40;99.90
23120;DHT22;11729;50.836;4.330;2023-09-19T01:38:10;16.30;99.90
23120;DHT22;11729;50.836;4.330;2023-09-19T01:40:52;16.30;99.90
23120;DHT22;11729;50.836;4.330;2023-09-19T01:43:31;16.40;99.90
23120;DHT22;11729;50.836;4.330;2023-09-19T01:46:18;16.30;99.90
23120;DHT22;11729;50.836;4.330;2023-09-19T01:51:46;16.40;99.90
23120;DHT22;11729;50.836;4.330;2023-09-19T01:54:18;16.40;99.90
23120;DHT22;11729;50.836;4.330;2023-09-19T01:59:23;16.40;99.90
23120;DHT22;11729;50.836;4.330;2023-09-19T02:01:52;16.30;99.90
23120;DHT22;11729;50.836;4.330;2023-09-19T02:04:18;16.30;99.90
23120;DHT22;11729;50.836;4.330;2023-09-19T02:06:44;16.40;99.90
23120;DHT22;11729;50.836;4.330;2023-09-19T02:09:14;16.40;99.90
23120;DHT22;11729;50.836;4.330;2023-09-19T02:11:40;16.40;99.90
23120;DHT22;11729;50.836;4.330;2023-09-19T02:14:07;16.30;99.90
23120;DHT22;11729;50.836;4.330;2023-09-19T02:16:34;16.40;99.90
23120;DHT22;11729;50.836;4.330;2023-09-19T02:19:00;16.40;99.90
23120;DHT22;11729;50.836;4.330;2023-09-19T02:21:26;16.40;99.90
23120;DHT22;11729;50.836;4.330;2023-09-19T02:23:56;16.50;99.90
23120;DHT22;11729;50.836;4.330;2023-09-19T02:26:22;16.50;99.90
23120;DHT22;11729;50.836;4.330;2023-09-19T02:28:50;16.50;99.90
23120;DHT22;11729;50.836;4.330;2023-09-19T02:31:16;16.50;99.90
23120;DHT22;11729;50.836;4.330;2023-09-19T02:33:45;16.50;99.90
23120;DHT22;11729;50.836;4.330;2023-09-19T02:36:11;16.50;99.90
23120;DHT22;11729;50.836;4.330;2023-09-19T02:38:37;16.50;99.90
23120;DHT22;11729;50.836;4.330;2023-09-19T02:41:03;16.60;99.90
23120;DHT22;11729;50.836;4.330;2023-09-19T02:43:28;16.50;99.90
23120;DHT22;11729;50.836;4.330;2023-09-19T02:45:54;16.50;99.90
23120;DHT22;11729;50.836;4.330;2023-09-19T02:48:20;16.60;99.90
23120;DHT22;11729;50.836;4.330;2023-09-19T02:50:49;16.50;99.90
23120;DHT22;11729;50.836;4.330;2023-09-19T02:53:15;16.50;99.90
23120;DHT22;11729;50.836;4.330;2023-09-19T02:55:40;16.50;99.90
23120;DHT22;11729;50.836;4.330;2023-09-19T02:58:06;16.50;99.90
23120;DHT22;11729;50.836;4.330;2023-09-19T03:00:37;16.50;99.90
23120;DHT22;11729;50.836;4.330;2023-09-19T03:03:03;16.60;99.90
23120;DHT22;11729;50.836;4.330;2023-09-19T03:05:30;16.60;99.90
23120;DHT22;11729;50.836;4.330;2023-09-19T03:07:57;16.50;99.90
23120;DHT22;11729;50.836;4.330;2023-09-19T03:10:22;16.60;99.90
23120;DHT22;11729;50.836;4.330;2023-09-19T03:12:50;16.60;99.90
23120;DHT22;11729;50.836;4.330;2023-09-19T03:15:16;16.60;99.90
23120;DHT22;11729;50.836;4.330;2023-09-19T03:17:44;16.70;99.90
23120;DHT22;11729;50.836;4.330;2023-09-19T03:20:10;16.70;99.90
23120;DHT22;11729;50.836;4.330;2023-09-19T03:22:38;16.80;99.90
23120;DHT22;11729;50.836;4.330;2023-09-19T03:25:06;16.60;99.90
23120;DHT22;11729;50.836;4.330;2023-09-19T03:27:36;16.50;99.90
23120;DHT22;11729;50.836;4.330;2023-09-19T03:30:03;16.50;99.90
23120;DHT22;11729;50.836;4.330;2023-09-19T03:32:33;16.50;99.90
23120;DHT22;11729;50.836;4.330;2023-09-19T03:35:00;16.40;99.90
23120;DHT22;11729;50.836;4.330;2023-09-19T03:37:25;16.40;99.90
23120;DHT22;11729;50.836;4.330;2023-09-19T03:39:51;16.40;99.90
23120;DHT22;11729;50.836;4.330;2023-09-19T03:42:17;16.40;99.90
23120;DHT22;11729;50.836;4.330;2023-09-19T03:44:43;16.30;99.90
23120;DHT22;11729;50.836;4.330;2023-09-19T03:47:08;16.30;99.90
23120;DHT22;11729;50.836;4.330;2023-09-19T03:49:34;16.30;99.90
23120;DHT22;11729;50.836;4.330;2023-09-19T03:51:59;16.30;99.90
23120;DHT22;11729;50.836;4.330;2023-09-19T03:54:26;16.20;99.90
23120;DHT22;11729;50.836;4.330;2023-09-19T03:56:52;16.20;99.90
23120;DHT22;11729;50.836;4.330;2023-09-19T03:59:17;16.10;99.90
23120;DHT22;11729;50.836;4.330;2023-09-19T04:01:43;16.00;99.90
23120;DHT22;11729;50.836;4.330;2023-09-19T04:04:09;16.10;99.90
23120;DHT22;11729;50.836;4.330;2023-09-19T04:06:35;16.10;99.90
23120;DHT22;11729;50.836;4.330;2023-09-19T04:09:02;16.00;99.90
23120;DHT22;11729;50.836;4.330;2023-09-19T04:11:29;16.00;99.90
23120;DHT22;11729;50.836;4.330;2023-09-19T04:13:55;15.90;99.90
23120;DHT22;11729;50.836;4.330;2023-09-19T04:16:21;15.90;99.90
23120;DHT22;11729;50.836;4.330;2023-09-19T04:18:47;16.00;99.90
23120;DHT22;11729;50.836;4.330;2023-09-19T04:21:13;15.90;99.90
23120;DHT22;11729;50.836;4.330;2023-09-19T04:23:39;15.90;99.90
23120;DHT22;11729;50.836;4.330;2023-09-19T04:26:04;15.80;99.90
23120;DHT22;11729;50.836;4.330;2023-09-19T04:28:31;15.80;99.90
23120;DHT22;11729;50.836;4.330;2023-09-19T04:30:57;15.80;99.90
23120;DHT22;11729;50.836;4.330;2023-09-19T04:33:25;15.80;99.90
23120;DHT22;11729;50.836;4.330;2023-09-19T04:35:52;15.90;99.90
23120;DHT22;11729;50.836;4.330;2023-09-19T04:38:19;15.90;99.90
23120;DHT22;11729;50.836;4.330;2023-09-19T04:40:45;15.80;99.90
23120;DHT22;11729;50.836;4.330;2023-09-19T04:43:11;15.80;99.90
23120;DHT22;11729;50.836;4.330;2023-09-19T04:45:38;15.70;99.90
23120;DHT22;11729;50.836;4.330;2023-09-19T04:48:04;15.70;99.90
23120;DHT22;11729;50.836;4.330;2023-09-19T04:50:32;15.70;99.90
23120;DHT22;11729;50.836;4.330;2023-09-19T04:52:59;15.70;99.90
23120;DHT22;11729;50.836;4.330;2023-09-19T04:55:25;15.50;99.90
23120;DHT22;11729;50.836;4.330;2023-09-19T04:57:51;15.50;99.90
23120;DHT22;11729;50.836;4.330;2023-09-19T05:00:20;15.50;99.90
23120;DHT22;11729;50.836;4.330;2023-09-19T05:02:49;15.50;99.90
23120;DHT22;11729;50.836;4.330;2023-09-19T05:05:16;15.60;99.90
23120;DHT22;11729;50.836;4.330;2023-09-19T05:07:46;15.60;99.90
23120;DHT22;11729;50.836;4.330;2023-09-19T05:10:12;15.60;99.90
23120;DHT22;11729;50.836;4.330;2023-09-19T05:12:38;15.50;99.90
23120;DHT22;11729;50.836;4.330;2023-09-19T05:15:08;15.50;99.90
23120;DHT22;11729;50.836;4.330;2023-09-19T05:17:34;15.50;99.90
23120;DHT22;11729;50.836;4.330;2023-09-19T05:20:04;15.50;99.90
23120;DHT22;11729;50.836;4.330;2023-09-19T05:23:03;15.50;99.90
23120;DHT22;11729;50.836;4.330;2023-09-19T05:25:34;15.50;99.90
23120;DHT22;11729;50.836;4.330;2023-09-19T05:28:02;15.50;99.90
23120;DHT22;11729;50.836;4.330;2023-09-19T05:30:31;15.60;99.90
23120;DHT22;11729;50.836;4.330;2023-09-19T05:32:57;15.60;99.90
23120;DHT22;11729;50.836;4.330;2023-09-19T05:35:25;15.60;99.90
23120;DHT22;11729;50.836;4.330;2023-09-19T05:37:52;15.60;99.90
23120;DHT22;11729;50.836;4.330;2023-09-19T05:40:18;15.60;99.90
23120;DHT22;11729;50.836;4.330;2023-09-19T05:42:44;15.70;99.90
23120;DHT22;11729;50.836;4.330;2023-09-19T05:45:11;15.70;99.90
23120;DHT22;11729;50.836;4.330;2023-09-19T05:47:45;15.70;99.90
23120;DHT22;11729;50.836;4.330;2023-09-19T05:50:12;15.80;99.90
23120;DHT22;11729;50.836;4.330;2023-09-19T05:52:38;15.80;99.90
23120;DHT22;11729;50.836;4.330;2023-09-19T05:55:07;15.70;99.90
23120;DHT22;11729;50.836;4.330;2023-09-19T05:57:34;15.80;99.90
23120;DHT22;11729;50.836;4.330;2023-09-19T05:59:59;15.90;99.90
23120;DHT22;11729;50.836;4.330;2023-09-19T06:02:26;15.90;99.90
23120;DHT22;11729;50.836;4.330;2023-09-19T06:04:56;15.90;99.90
23120;DHT22;11729;50.836;4.330;2023-09-19T06:07:24;16.00;99.90
23120;DHT22;11729;50.836;4.330;2023-09-19T06:09:52;16.00;99.90
23120;DHT22;11729;50.836;4.330;2023-09-19T06:12:21;16.10;99.90
23120;DHT22;11729;50.836;4.330;2023-09-19T06:14:46;16.20;99.90
23120;DHT22;11729;50.836;4.330;2023-09-19T06:17:13;16.20;99.90
23120;DHT22;11729;50.836;4.330;2023-09-19T06:19:39;16.20;99.90
23120;DHT22;11729;50.836;4.330;2023-09-19T06:22:05;16.30;99.90
23120;DHT22;11729;50.836;4.330;2023-09-19T06:24:31;16.30;99.90
23120;DHT22;11729;50.836;4.330;2023-09-19T06:26:57;16.40;99.90
23120;DHT22;11729;50.836;4.330;2023-09-19T06:29:26;16.40;99.90
23120;DHT22;11729;50.836;4.330;2023-09-19T06:31:52;16.40;99.90
23120;DHT22;11729;50.836;4.330;2023-09-19T06:34:17;16.50;99.90
23120;DHT22;11729;50.836;4.330;2023-09-19T06:36:44;16.50;99.90
23120;DHT22;11729;50.836;4.330;2023-09-19T06:39:10;16.60;99.90
23120;DHT22;11729;50.836;4.330;2023-09-19T06:41:37;16.60;99.90
23120;DHT22;11729;50.836;4.330;2023-09-19T06:44:04;16.70;99.90
23120;DHT22;11729;50.836;4.330;2023-09-19T06:46:31;16.80;99.90
23120;DHT22;11729;50.836;4.330;2023-09-19T06:49:00;16.70;99.90
23120;DHT22;11729;50.836;4.330;2023-09-19T06:51:26;16.60;99.90
23120;DHT22;11729;50.836;4.330;2023-09-19T06:53:52;16.70;99.90
23120;DHT22;11729;50.836;4.330;2023-09-19T06:56:19;16.70;99.90
23120;DHT22;11729;50.836;4.330;2023-09-19T06:58:51;16.90;99.90
23120;DHT22;11729;50.836;4.330;2023-09-19T07:01:16;17.20;99.90
23120;DHT22;11729;50.836;4.330;2023-09-19T07:03:43;17.50;99.90
23120;DHT22;11729;50.836;4.330;2023-09-19T07:06:11;17.70;99.90
23120;DHT22;11729;50.836;4.330;2023-09-19T07:08:37;18.10;99.90
23120;DHT22;11729;50.836;4.330;2023-09-19T07:11:04;18.10;99.90
23120;DHT22;11729;50.836;4.330;2023-09-19T07:13:31;18.30;99.90
23120;DHT22;11729;50.836;4.330;2023-09-19T07:15:58;18.40;99.90
23120;DHT22;11729;50.836;4.330;2023-09-19T07:18:25;18.70;99.90
23120;DHT22;11729;50.836;4.330;2023-09-19T07:20:59;19.30;99.90
23120;DHT22;11729;50.836;4.330;2023-09-19T07:23:30;19.70;99.90
23120;DHT22;11729;50.836;4.330;2023-09-19T07:26:01;20.00;99.90
23120;DHT22;11729;50.836;4.330;2023-09-19T07:28:27;20.60;99.90
23120;DHT22;11729;50.836;4.330;2023-09-19T07:30:53;21.10;99.90
23120;DHT22;11729;50.836;4.330;2023-09-19T07:33:19;21.50;99.90
23120;DHT22;11729;50.836;4.330;2023-09-19T07:35:48;21.70;99.90
23120;DHT22;11729;50.836;4.330;2023-09-19T07:38:14;21.70;99.90
23120;DHT22;11729;50.836;4.330;2023-09-19T07:40:40;21.60;99.90
23120;DHT22;11729;50.836;4.330;2023-09-19T07:43:05;21.30;99.90
23120;DHT22;11729;50.836;4.330;2023-09-19T07:45:32;21.30;99.90
23120;DHT22;11729;50.836;4.330;2023-09-19T07:47:58;21.10;99.90
23120;DHT22;11729;50.836;4.330;2023-09-19T07:50:26;21.20;99.90
23120;DHT22;11729;50.836;4.330;2023-09-19T07:52:52;21.30;99.90
23120;DHT22;11729;50.836;4.330;2023-09-19T07:55:19;21.40;99.90
23120;DHT22;11729;50.836;4.330;2023-09-19T07:57:46;21.70;99.90
23120;DHT22;11729;50.836;4.330;2023-09-19T08:00:12;22.00;99.90
23120;DHT22;11729;50.836;4.330;2023-09-19T08:02:39;22.40;99.90
23120;DHT22;11729;50.836;4.330;2023-09-19T08:05:06;22.50;99.90
23120;DHT22;11729;50.836;4.330;2023-09-19T08:07:35;22.30;99.90
23120;DHT22;11729;50.836;4.330;2023-09-19T08:10:02;22.50;99.90
23120;DHT22;11729;50.836;4.330;2023-09-19T08:12:29;22.70;99.90
23120;DHT22;11729;50.836;4.330;2023-09-19T08:14:55;22.90;99.90
23120;DHT22;11729;50.836;4.330;2023-09-19T08:17:21;23.10;99.90
23120;DHT22;11729;50.836;4.330;2023-09-19T08:19:48;22.90;99.90
23120;DHT22;11729;50.836;4.330;2023-09-19T08:22:19;23.30;99.90
23120;DHT22;11729;50.836;4.330;2023-09-19T08:24:44;23.50;99.90
23120;DHT22;11729;50.836;4.330;2023-09-19T08:27:11;23.40;99.90
23120;DHT22;11729;50.836;4.330;2023-09-19T08:29:37;23.50;99.90
23120;DHT22;11729;50.836;4.330;2023-09-19T08:32:04;23.80;99.90
23120;DHT22;11729;50.836;4.330;2023-09-19T08:34:29;23.60;99.90
23120;DHT22;11729;50.836;4.330;2023-09-19T08:36:59;23.30;99.90
23120;DHT22;11729;50.836;4.330;2023-09-19T08:39:26;23.60;99.90
23120;DHT22;11729;50.836;4.330;2023-09-19T08:41:58;23.60;99.90
23120;DHT22;11729;50.836;4.330;2023-09-19T08:44:25;23.90;99.90
23120;DHT22;11729;50.836;4.330;2023-09-19T08:46:54;24.10;99.90
23120;DHT22;11729;50.836;4.330;2023-09-19T08:49:27;24.00;99.90
23120;DHT22;11729;50.836;4.330;2023-09-19T08:52:07;23.90;99.90
23120;DHT22;11729;50.836;4.330;2023-09-19T08:54:38;24.50;99.90
23120;DHT22;11729;50.836;4.330;2023-09-19T08:57:07;24.40;99.90
23120;DHT22;11729;50.836;4.330;2023-09-19T08:59:40;24.10;99.90
23120;DHT22;11729;50.836;4.330;2023-09-19T09:02:16;24.00;99.90
23120;DHT22;11729;50.836;4.330;2023-09-19T09:04:45;23.70;99.90
23120;DHT22;11729;50.836;4.330;2023-09-19T09:07:12;23.40;99.90
23120;DHT22;11729;50.836;4.330;2023-09-19T09:09:39;23.60;99.90
23120;DHT22;11729;50.836;4.330;2023-09-19T09:12:12;23.70;99.90
23120;DHT22;11729;50.836;4.330;2023-09-19T09:14:39;24.10;99.90
23120;DHT22;11729;50.836;4.330;2023-09-19T09:17:05;24.30;99.90
23120;DHT22;11729;50.836;4.330;2023-09-19T09:19:31;24.40;99.90
23120;DHT22;11729;50.836;4.330;2023-09-19T09:22:10;24.20;99.90
23120;DHT22;11729;50.836;4.330;2023-09-19T09:24:37;23.90;99.90
23120;DHT22;11729;50.836;4.330;2023-09-19T09:27:05;23.60;99.90
23120;DHT22;11729;50.836;4.330;2023-09-19T09:29:48;23.60;99.90
23120;DHT22;11729;50.836;4.330;2023-09-19T09:32:23;23.50;99.90
23120;DHT22;11729;50.836;4.330;2023-09-19T09:34:53;23.00;99.90
23120;DHT22;11729;50.836;4.330;2023-09-19T09:37:20;23.00;99.90
23120;DHT22;11729;50.836;4.330;2023-09-19T09:39:53;22.70;99.90
23120;DHT22;11729;50.836;4.330;2023-09-19T09:42:31;22.40;99.90
23120;DHT22;11729;50.836;4.330;2023-09-19T09:45:18;22.50;99.90
23120;DHT22;11729;50.836;4.330;2023-09-19T09:47:49;22.50;99.90
23120;DHT22;11729;50.836;4.330;2023-09-19T09:50:34;22.60;99.90
23120;DHT22;11729;50.836;4.330;2023-09-19T09:53:29;22.50;99.90
23120;DHT22;11729;50.836;4.330;2023-09-19T09:56:05;22.30;99.90
23120;DHT22;11729;50.836;4.330;2023-09-19T09:58:36;22.00;99.90
23120;DHT22;11729;50.836;4.330;2023-09-19T10:01:03;22.10;99.90
23120;DHT22;11729;50.836;4.330;2023-09-19T10:03:36;22.20;99.90
23120;DHT22;11729;50.836;4.330;2023-09-19T10:06:07;22.10;99.90
23120;DHT22;11729;50.836;4.330;2023-09-19T10:09:06;21.90;99.90
23120;DHT22;11729;50.836;4.330;2023-09-19T10:11:32;22.20;99.90
23120;DHT22;11729;50.836;4.330;2023-09-19T10:14:00;22.30;99.90
23120;DHT22;11729;50.836;4.330;2023-09-19T10:16:30;22.30;99.90
23120;DHT22;11729;50.836;4.330;2023-09-19T10:19:00;22.50;99.90
23120;DHT22;11729;50.836;4.330;2023-09-19T10:21:28;22.90;99.90
23120;DHT22;11729;50.836;4.330;2023-09-19T10:23:58;23.10;99.90
23120;DHT22;11729;50.836;4.330;2023-09-19T10:26:27;23.30;99.90
23120;DHT22;11729;50.836;4.330;2023-09-19T10:28:57;23.60;99.90
23120;DHT22;11729;50.836;4.330;2023-09-19T10:31:27;24.10;99.90
23120;DHT22;11729;50.836;4.330;2023-09-19T10:33:55;24.50;99.90
23120;DHT22;11729;50.836;4.330;2023-09-19T10:36:24;25.00;99.90
23120;DHT22;11729;50.836;4.330;2023-09-19T10:38:56;25.30;99.90
23120;DHT22;11729;50.836;4.330;2023-09-19T10:41:23;25.70;99.90
23120;DHT22;11729;50.836;4.330;2023-09-19T10:43:51;25.80;99.90
23120;DHT22;11729;50.836;4.330;2023-09-19T10:46:20;25.70;99.90
23120;DHT22;11729;50.836;4.330;2023-09-19T10:48:46;25.70;99.90
23120;DHT22;11729;50.836;4.330;2023-09-19T10:51:22;25.70;99.90
23120;DHT22;11729;50.836;4.330;2023-09-19T10:53:53;25.60;99.90
23120;DHT22;11729;50.836;4.330;2023-09-19T10:56:32;26.10;99.90
23120;DHT22;11729;50.836;4.330;2023-09-19T10:59:13;26.40;98.50
23120;DHT22;11729;50.836;4.330;2023-09-19T11:01:42;26.30;98.10
23120;DHT22;11729;50.836;4.330;2023-09-19T11:04:33;26.10;98.40
23120;DHT22;11729;50.836;4.330;2023-09-19T11:15:11;26.50;99.00
23120;DHT22;11729;50.836;4.330;2023-09-19T11:17:58;26.90;97.70
23120;DHT22;11729;50.836;4.330;2023-09-19T11:20:25;26.60;96.70
23120;DHT22;11729;50.836;4.330;2023-09-19T11:25:43;26.60;96.50
23120;DHT22;11729;50.836;4.330;2023-09-19T11:30:51;25.90;97.40
23120;DHT22;11729;50.836;4.330;2023-09-19T11:33:32;25.20;98.80
23120;DHT22;11729;50.836;4.330;2023-09-19T11:36:08;25.10;99.80
23120;DHT22;11729;50.836;4.330;2023-09-19T11:46:30;24.60;99.90
23120;DHT22;11729;50.836;4.330;2023-09-19T11:49:08;24.70;99.90
23120;DHT22;11729;50.836;4.330;2023-09-19T11:51:55;24.70;99.90
23120;DHT22;11729;50.836;4.330;2023-09-19T11:54:20;24.80;99.90
23120;DHT22;11729;50.836;4.330;2023-09-19T11:56:54;24.90;99.90
23120;DHT22;11729;50.836;4.330;2023-09-19T11:59:22;24.90;99.90
23120;DHT22;11729;50.836;4.330;2023-09-19T12:01:52;24.70;99.90
23120;DHT22;11729;50.836;4.330;2023-09-19T12:04:43;24.40;99.90
23120;DHT22;11729;50.836;4.330;2023-09-19T12:07:11;24.10;99.90
23120;DHT22;11729;50.836;4.330;2023-09-19T12:09:48;23.80;99.90
23120;DHT22;11729;50.836;4.330;2023-09-19T12:12:25;23.50;99.90
23120;DHT22;11729;50.836;4.330;2023-09-19T12:14:56;23.20;99.90
23120;DHT22;11729;50.836;4.330;2023-09-19T12:17:40;23.30;99.90
23120;DHT22;11729;50.836;4.330;2023-09-19T12:20:09;23.40;99.90
23120;DHT22;11729;50.836;4.330;2023-09-19T12:22:42;23.50;99.90
23120;DHT22;11729;50.836;4.330;2023-09-19T12:25:09;23.80;99.90
23120;DHT22;11729;50.836;4.330;2023-09-19T12:27:47;24.20;99.90
23120;DHT22;11729;50.836;4.330;2023-09-19T12:30:16;24.10;99.90
23120;DHT22;11729;50.836;4.330;2023-09-19T12:32:46;24.10;99.90
23120;DHT22;11729;50.836;4.330;2023-09-19T12:35:30;23.80;99.90
23120;DHT22;11729;50.836;4.330;2023-09-19T12:37:58;23.70;99.90
23120;DHT22;11729;50.836;4.330;2023-09-19T12:40:24;23.60;99.90
23120;DHT22;11729;50.836;4.330;2023-09-19T12:42:59;23.50;99.90
23120;DHT22;11729;50.836;4.330;2023-09-19T12:45:27;23.30;99.90
23120;DHT22;11729;50.836;4.330;2023-09-19T12:51:09;22.90;99.90
23120;DHT22;11729;50.836;4.330;2023-09-19T12:56:11;22.80;99.90
23120;DHT22;11729;50.836;4.330;2023-09-19T12:58:56;22.70;99.90
23120;DHT22;11729;50.836;4.330;2023-09-19T13:01:26;22.90;99.90
23120;DHT22;11729;50.836;4.330;2023-09-19T13:04:18;22.90;99.90
23120;DHT22;11729;50.836;4.330;2023-09-19T13:06:48;22.90;99.90
23120;DHT22;11729;50.836;4.330;2023-09-19T13:09:15;23.10;99.90
23120;DHT22;11729;50.836;4.330;2023-09-19T13:11:42;23.20;99.90
23120;DHT22;11729;50.836;4.330;2023-09-19T13:17:03;23.10;99.90
23120;DHT22;11729;50.836;4.330;2023-09-19T13:19:49;23.10;99.90
23120;DHT22;11729;50.836;4.330;2023-09-19T13:22:43;23.00;99.90
23120;DHT22;11729;50.836;4.330;2023-09-19T13:25:20;23.00;99.90
23120;DHT22;11729;50.836;4.330;2023-09-19T13:27:47;22.80;99.90
23120;DHT22;11729;50.836;4.330;2023-09-19T13:30:16;22.70;99.90
23120;DHT22;11729;50.836;4.330;2023-09-19T13:32:42;22.60;99.90
23120;DHT22;11729;50.836;4.330;2023-09-19T13:35:09;22.50;99.90
23120;DHT22;11729;50.836;4.330;2023-09-19T13:37:35;22.60;99.90
23120;DHT22;11729;50.836;4.330;2023-09-19T13:40:05;22.60;99.90
23120;DHT22;11729;50.836;4.330;2023-09-19T13:42:31;22.40;99.90
23120;DHT22;11729;50.836;4.330;2023-09-19T13:44:57;22.50;99.90
23120;DHT22;11729;50.836;4.330;2023-09-19T13:47:22;22.40;99.90
23120;DHT22;11729;50.836;4.330;2023-09-19T13:49:50;22.30;99.90
23120;DHT22;11729;50.836;4.330;2023-09-19T13:52:20;22.40;99.90
23120;DHT22;11729;50.836;4.330;2023-09-19T13:54:45;22.40;99.90
23120;DHT22;11729;50.836;4.330;2023-09-19T13:57:11;22.30;99.90
23120;DHT22;11729;50.836;4.330;2023-09-19T13:59:37;22.10;99.90
23120;DHT22;11729;50.836;4.330;2023-09-19T14:02:03;22.10;99.90
23120;DHT22;11729;50.836;4.330;2023-09-19T14:04:31;22.00;99.90
23120;DHT22;11729;50.836;4.330;2023-09-19T14:06:58;21.90;99.90
23120;DHT22;11729;50.836;4.330;2023-09-19T14:09:24;21.80;99.90
23120;DHT22;11729;50.836;4.330;2023-09-19T14:11:50;21.70;99.90
23120;DHT22;11729;50.836;4.330;2023-09-19T14:14:18;21.60;99.90
23120;DHT22;11729;50.836;4.330;2023-09-19T14:16:46;21.60;99.90
23120;DHT22;11729;50.836;4.330;2023-09-19T14:19:11;21.60;99.90
23120;DHT22;11729;50.836;4.330;2023-09-19T14:21:37;21.70;99.90
23120;DHT22;11729;50.836;4.330;2023-09-19T14:24:05;21.90;99.90
23120;DHT22;11729;50.836;4.330;2023-09-19T14:26:35;22.00;99.90
23120;DHT22;11729;50.836;4.330;2023-09-19T14:29:01;22.20;99.90
23120;DHT22;11729;50.836;4.330;2023-09-19T14:31:27;22.30;99.90
23120;DHT22;11729;50.836;4.330;2023-09-19T14:33:57;22.30;99.90
23120;DHT22;11729;50.836;4.330;2023-09-19T14:36:25;22.40;99.90
23120;DHT22;11729;50.836;4.330;2023-09-19T14:38:52;22.60;99.90
23120;DHT22;11729;50.836;4.330;2023-09-19T14:41:23;22.50;99.90
23120;DHT22;11729;50.836;4.330;2023-09-19T14:43:51;22.40;99.90
23120;DHT22;11729;50.836;4.330;2023-09-19T14:46:18;22.30;99.90
23120;DHT22;11729;50.836;4.330;2023-09-19T14:48:44;22.40;99.90
23120;DHT22;11729;50.836;4.330;2023-09-19T14:51:13;22.40;99.90
23120;DHT22;11729;50.836;4.330;2023-09-19T14:53:39;22.30;99.90
23120;DHT22;11729;50.836;4.330;2023-09-19T14:56:08;22.30;99.90
23120;DHT22;11729;50.836;4.330;2023-09-19T14:58:35;22.20;99.90
23120;DHT22;11729;50.836;4.330;2023-09-19T15:01:12;22.10;99.90
23120;DHT22;11729;50.836;4.330;2023-09-19T15:03:41;22.00;99.90
23120;DHT22;11729;50.836;4.330;2023-09-19T15:06:09;22.00;99.90
23120;DHT22;11729;50.836;4.330;2023-09-19T15:08:46;21.90;99.90
23120;DHT22;11729;50.836;4.330;2023-09-19T15:11:16;21.90;99.90
23120;DHT22;11729;50.836;4.330;2023-09-19T15:13:43;21.90;99.90
23120;DHT22;11729;50.836;4.330;2023-09-19T15:16:10;21.90;99.90
23120;DHT22;11729;50.836;4.330;2023-09-19T15:18:40;21.90;99.90
23120;DHT22;11729;50.836;4.330;2023-09-19T15:21:08;21.90;99.90
23120;DHT22;11729;50.836;4.330;2023-09-19T15:23:36;21.90;99.90
23120;DHT22;11729;50.836;4.330;2023-09-19T15:26:02;21.80;99.90
23120;DHT22;11729;50.836;4.330;2023-09-19T15:28:28;21.70;99.90
23120;DHT22;11729;50.836;4.330;2023-09-19T15:31:15;21.70;99.90
23120;DHT22;11729;50.836;4.330;2023-09-19T15:33:41;21.70;99.90
23120;DHT22;11729;50.836;4.330;2023-09-19T15:39:08;21.50;99.90
23120;DHT22;11729;50.836;4.330;2023-09-19T15:41:40;21.40;99.90
23120;DHT22;11729;50.836;4.330;2023-09-19T15:44:13;21.40;99.90
23120;DHT22;11729;50.836;4.330;2023-09-19T15:46:39;21.40;99.90
23120;DHT22;11729;50.836;4.330;2023-09-19T15:49:06;21.40;99.90
23120;DHT22;11729;50.836;4.330;2023-09-19T15:51:33;21.30;99.90
23120;DHT22;11729;50.836;4.330;2023-09-19T15:53:59;21.40;99.90
23120;DHT22;11729;50.836;4.330;2023-09-19T15:56:26;21.30;99.90
23120;DHT22;11729;50.836;4.330;2023-09-19T15:58:54;21.20;99.90
23120;DHT22;11729;50.836;4.330;2023-09-19T16:01:22;21.20;99.90
23120;DHT22;11729;50.836;4.330;2023-09-19T16:03:49;21.00;99.90
23120;DHT22;11729;50.836;4.330;2023-09-19T16:06:20;21.00;99.90
23120;DHT22;11729;50.836;4.330;2023-09-19T16:08:47;21.10;99.90
23120;DHT22;11729;50.836;4.330;2023-09-19T16:11:13;21.10;99.90
23120;DHT22;11729;50.836;4.330;2023-09-19T16:13:41;21.00;99.90
23120;DHT22;11729;50.836;4.330;2023-09-19T16:16:12;21.00;99.90
23120;DHT22;11729;50.836;4.330;2023-09-19T16:18:55;20.80;99.90
23120;DHT22;11729;50.836;4.330;2023-09-19T16:21:23;20.80;99.90
23120;DHT22;11729;50.836;4.330;2023-09-19T16:23:51;20.90;99.90
23120;DHT22;11729;50.836;4.330;2023-09-19T16:26:19;20.90;99.90
23120;DHT22;11729;50.836;4.330;2023-09-19T16:28:46;20.80;99.90
23120;DHT22;11729;50.836;4.330;2023-09-19T16:31:12;20.80;99.90
23120;DHT22;11729;50.836;4.330;2023-09-19T16:33:40;20.80;99.90